Terminal Aerodrome Forecast
Issued by NWS

Home | Current Version | Previous Version | Text Only | Print | Product List | Glossary On
Versions: 1 2 3 4 5 6 7 8 9 10 11 12 13 14 15 16 17 18 19 20 21 22 23 24 25 26 27 28 29 30 31 32 33 34
000
FTUS45 KGJT 131120
TAFVEL
TAF
KVEL 131120Z 1312/1412 00000KT 2SM BR BKN250
      TEMPO 1312/1315 4SM BR
     FM131500 VRB04KT 4SM BR BKN250
     FM132200 10006KT P6SM BKN250
     FM141100 00000KT P6SM BKN200=

USA.gov is the U.S. government's official web portal to all federal, state and local government web resources and services.